Time;durP1;ratioP1;P1;durP2;ratioP2;P2;SDS_P1;SDS_P2;PMS_P1;PMS_P2;Temp;Humidity;BMP_temperature;BMP_pressure;BME280_temperature;BME280_humidity;BME280_pressure;Samples;Min_cycle;Max_cycle;Signal;HPM_P1;HPM_P2
2022/11/06 00:00:34;;;;;;;399.85;197.00;;;;;;;11.97;81.19;99294.81;2502902;27;20263;-73
2022/11/06 00:00:44;;;;;;;413.43;212.17;;;;;;;11.97;81.62;99286.09;351714;28;3401;-73
2022/11/06 00:00:55;;;;;;;412.30;212.13;;;;;;;11.96;81.49;99287.03;351985;28;2937;-74
2022/11/06 00:01:09;;;;;;;414.77;214.83;;;;;;;11.96;82.01;99290.50;350305;28;2547;-74
2022/11/06 00:01:19;;;;;;;417.85;210.95;;;;;;;11.96;82.45;99292.25;347931;28;1457;-74
2022/11/06 00:01:30;;;;;;;419.80;205.97;;;;;;;11.96;82.31;99287.03;347538;28;1198;-74
2022/11/06 00:01:40;;;;;;;415.43;204.90;;;;;;;11.94;82.21;99294.13;349036;28;820;-74
2022/11/06 00:01:51;;;;;;;414.77;207.93;;;;;;;11.94;82.23;99289.72;349003;28;926;-74
2022/11/06 00:02:01;;;;;;;412.53;210.63;;;;;;;11.94;82.28;99289.72;350104;28;1362;-74
2022/11/06 00:02:11;;;;;;;409.30;205.90;;;;;;;11.94;82.13;99289.72;350818;28;971;-74
2022/11/06 00:02:22;;;;;;;405.57;202.67;;;;;;;11.94;81.85;99289.72;353175;28;1183;-74
2022/11/06 00:02:32;;;;;;;407.40;199.93;;;;;;;11.89;81.60;99290.88;350335;28;835;-74
2022/11/06 00:02:43;;;;;;;411.93;200.90;;;;;;;11.90;81.70;99292.56;349006;28;889;-74
2022/11/06 00:02:56;;;;;;;406.98;196.63;;;;;;;11.90;81.63;99289.97;348928;28;900;-74
2022/11/06 00:03:07;;;;;;;403.08;195.23;;;;;;;11.92;81.59;99290.72;346893;28;1685;-73
2022/11/06 00:03:17;;;;;;;400.05;195.25;;;;;;;11.92;81.74;99285.47;348908;28;1415;-73
2022/11/06 00:03:27;;;;;;;403.10;198.37;;;;;;;11.93;81.83;99287.19;347671;28;943;-73
2022/11/06 00:03:38;;;;;;;406.98;196.75;;;;;;;11.91;81.90;99289.88;347443;28;1389;-73
2022/11/06 00:03:51;;;;;;;410.20;195.13;;;;;;;11.91;82.12;99289.88;346242;28;824;-73
2022/11/06 00:04:01;;;;;;;411.27;197.60;;;;;;;11.93;81.83;99295.03;346092;28;1314;-73
2022/11/06 00:04:12;;;;;;;411.58;200.43;;;;;;;11.93;81.74;99289.81;345976;28;1198;-73
2022/11/06 00:04:22;;;;;;;414.30;204.23;;;;;;;11.94;81.39;99284.47;347554;28;1687;-74
2022/11/06 00:04:32;;;;;;;413.03;204.30;;;;;;;11.96;81.61;99293.13;344804;28;979;-74
2022/11/06 00:04:43;;;;;;;408.47;204.80;;;;;;;11.97;81.75;99288.72;348134;28;1450;-73
2022/11/06 00:04:53;;;;;;;407.10;200.47;;;;;;;11.96;81.44;99293.13;346204;28;1237;-73
2022/11/06 00:06:47;;;;;;;405.50;192.50;;;;;;;12.00;82.37;99291.19;336937;29;1004;-73
2022/11/06 00:06:58;;;;;;;402.05;190.95;;;;;;;11.98;82.34;99290.41;338170;29;1230;-73
2022/11/06 00:07:08;;;;;;;400.43;193.40;;;;;;;11.96;82.15;99284.41;340968;28;1354;-73
2022/11/06 00:07:18;;;;;;;403.23;194.53;;;;;;;11.96;82.37;99287.03;340915;29;802;-73
2022/11/06 00:07:29;;;;;;;402.23;192.95;;;;;;;11.94;82.42;99287.09;340232;29;1448;-73
2022/11/06 00:07:39;;;;;;;403.90;187.43;;;;;;;11.94;82.19;99286.25;340887;29;1210;-73
2022/11/06 00:07:50;;;;;;;405.67;188.93;;;;;;;11.93;82.30;99287.19;339576;29;1343;-73
2022/11/06 00:08:00;;;;;;;407.47;189.30;;;;;;;11.94;82.60;99286.25;343189;28;922;-73
2022/11/06 00:08:10;;;;;;;407.50;195.63;;;;;;;11.93;82.65;99288.03;341929;28;875;-73
2022/11/06 00:08:35;;;;;;;408.47;197.63;;;;;;;11.95;82.09;99285.31;341059;29;922;-73
2022/11/06 00:08:45;;;;;;;401.20;194.07;;;;;;;11.95;82.27;99280.06;337707;29;1242;-73
2022/11/06 00:08:57;;;;;;;404.92;194.80;;;;;;;11.94;82.55;99278.38;338786;29;1362;-73
2022/11/06 00:09:10;;;;;;;409.02;194.75;;;;;;;11.93;82.10;99280.16;339353;29;2025;-73
2022/11/06 00:09:21;;;;;;;410.23;199.43;;;;;;;11.93;81.99;99276.69;338145;29;1020;-73
2022/11/06 00:09:31;;;;;;;411.00;198.77;;;;;;;11.92;81.98;99275.00;337903;29;1917;-74
2022/11/06 00:09:41;;;;;;;410.17;196.07;;;;;;;11.93;82.00;99276.69;337168;29;1392;-74
2022/11/06 00:09:52;;;;;;;409.90;190.63;;;;;;;11.94;82.31;99278.38;337116;29;3548;-74
2022/11/06 00:10:02;;;;;;;407.77;189.77;;;;;;;11.93;82.03;99274.06;337242;29;2975;-73
2022/11/06 00:10:13;;;;;;;404.63;190.00;;;;;;;11.93;82.45;99271.44;336184;29;1044;-73
2022/11/06 00:10:24;;;;;;;405.23;191.40;;;;;;;11.94;82.01;99273.13;337840;29;1507;-73
2022/11/06 00:10:34;;;;;;;408.87;192.90;;;;;;;11.94;82.06;99273.13;334494;29;850;-73
2022/11/06 00:10:45;;;;;;;408.67;193.32;;;;;;;11.93;82.00;99276.69;331542;29;1671;-73
2022/11/06 00:10:55;;;;;;;410.90;195.97;;;;;;;11.92;81.67;99270.59;332067;29;1785;-73
2022/11/06 00:11:14;;;;;;;407.38;200.23;;;;;;;11.90;81.72;99271.59;331207;29;796;-73
2022/11/06 00:11:24;;;;;;;407.98;197.07;;;;;;;11.88;81.96;99270.84;328222;29;2162;-72
2022/11/06 00:11:34;;;;;;;409.43;197.07;;;;;;;11.83;82.18;99272.84;329464;30;845;-72
2022/11/06 00:11:45;;;;;;;409.52;199.70;;;;;;;11.80;82.12;99278.25;329178;30;1595;-72
2022/11/06 00:11:56;;;;;;;408.20;198.90;;;;;;;11.79;82.32;99273.91;325623;30;1461;-72
2022/11/06 00:12:07;;;;;;;410.58;199.15;;;;;;;11.80;82.30;99270.38;329358;30;1466;-73
2022/11/06 00:12:17;;;;;;;412.77;200.07;;;;;;;11.82;82.08;99273.75;329133;30;1343;-74
2022/11/06 00:12:27;;;;;;;412.52;202.27;;;;;;;11.84;82.63;99271.91;329019;29;1784;-75
2022/11/06 00:12:38;;;;;;;411.57;201.60;;;;;;;11.85;82.52;99273.59;328936;29;2118;-74
2022/11/06 00:12:48;;;;;;;411.75;205.65;;;;;;;11.86;82.74;99275.31;329338;29;1230;-74
2022/11/06 00:12:59;;;;;;;411.20;206.10;;;;;;;11.86;82.74;99268.28;327240;30;2223;-74
2022/11/06 00:13:09;;;;;;;411.07;206.43;;;;;;;11.87;83.08;99277.00;326685;30;2602;-74
2022/11/06 00:13:19;;;;;;;408.33;201.07;;;;;;;11.87;82.84;99271.75;328073;30;1469;-74
2022/11/06 00:13:31;;;;;;;412.20;197.27;;;;;;;11.88;82.73;99273.44;324889;30;2632;-73
2022/11/06 00:13:41;;;;;;;411.23;198.30;;;;;;;11.88;82.89;99273.44;325123;30;2763;-75
2022/11/06 00:13:52;;;;;;;414.07;198.93;;;;;;;11.89;82.80;99273.38;324886;30;1486;-74
2022/11/06 00:14:02;;;;;;;414.90;198.98;;;;;;;11.90;82.52;99274.22;321787;30;1825;-73
2022/11/06 00:14:12;;;;;;;410.17;199.60;;;;;;;11.92;82.84;99280.22;321181;30;1391;-73
2022/11/06 00:14:23;;;;;;;408.67;202.50;;;;;;;11.94;82.46;99283.63;321690;30;1987;-75
2022/11/06 00:14:33;;;;;;;406.87;200.17;;;;;;;11.95;82.19;99280.06;320924;30;2095;-73
2022/11/06 00:14:44;;;;;;;407.40;196.02;;;;;;;11.93;82.10;99276.69;316609;31;2721;-73
2022/11/06 00:14:54;;;;;;;407.47;195.50;;;;;;;11.93;82.00;99281.94;318072;30;2847;-73
2022/11/06 00:15:05;;;;;;;409.10;201.40;;;;;;;11.88;82.08;99290.03;325780;30;828;-74
2022/11/06 00:15:16;;;;;;;409.40;201.52;;;;;;;11.85;82.13;99286.72;321414;30;3252;-73
2022/11/06 00:15:26;;;;;;;409.73;204.20;;;;;;;11.83;82.32;99285.94;316376;30;3066;-73
2022/11/06 00:15:37;;;;;;;409.73;202.88;;;;;;;11.83;82.19;99285.94;315054;31;1327;-73
2022/11/06 00:15:47;;;;;;;411.53;204.03;;;;;;;11.79;82.28;99290.50;316822;31;3383;-74
2022/11/06 00:16:02;;;;;;;410.30;197.25;;;;;;;11.77;82.53;99286.25;313996;31;2888;-73
2022/11/06 00:16:13;;;;;;;411.88;202.40;;;;;;;11.75;82.64;99288.94;315630;31;2282;-74
2022/11/06 00:16:23;;;;;;;411.77;204.90;;;;;;;11.75;82.48;99291.53;314718;31;2248;-73
2022/11/06 00:16:36;;;;;;;412.03;206.33;;;;;;;11.77;82.97;99291.50;312879;31;1232;-73
2022/11/06 00:16:46;;;;;;;412.35;202.85;;;;;;;11.75;82.44;99288.06;313235;31;3174;-73
2022/11/06 00:16:56;;;;;;;412.87;200.10;;;;;;;11.74;82.61;99281.97;310976;31;3723;-73
2022/11/06 00:17:07;;;;;;;413.23;204.20;;;;;;;11.77;82.79;99286.25;308531;32;1195;-74
2022/11/06 00:17:17;;;;;;;415.88;210.98;;;;;;;11.79;82.52;99284.41;306585;32;4375;-73
2022/11/06 00:17:28;;;;;;;417.00;215.63;;;;;;;11.81;82.53;99282.56;306509;32;4446;-73
2022/11/06 00:17:38;;;;;;;418.23;209.18;;;;;;;11.84;82.53;99287.66;306736;31;4396;-73
2022/11/06 00:17:49;;;;;;;413.17;205.17;;;;;;;11.85;82.22;99284.09;308561;32;1030;-73
2022/11/06 00:17:59;;;;;;;414.23;207.20;;;;;;;11.86;82.34;99280.53;302523;32;4657;-73
2022/11/06 00:18:10;;;;;;;415.75;208.75;;;;;;;11.87;82.93;99277.00;299005;32;4325;-73
2022/11/06 00:18:20;;;;;;;413.47;204.80;;;;;;;11.88;82.69;99282.16;301145;32;1213;-74
2022/11/06 00:18:31;;;;;;;412.05;201.98;;;;;;;11.89;82.75;99272.53;302001;32;3132;-74
2022/11/06 00:18:42;;;;;;;408.48;199.70;;;;;;;11.90;82.78;99276.84;299489;32;3752;-74
2022/11/06 00:18:53;;;;;;;414.07;202.40;;;;;;;11.89;82.67;99273.38;297848;33;1510;-74
2022/11/06 00:19:03;;;;;;;413.63;202.27;;;;;;;11.90;83.07;99277.69;296546;33;3385;-74
2022/11/06 00:19:14;;;;;;;413.08;202.98;;;;;;;11.91;82.70;99278.53;294002;33;4866;-74
2022/11/06 00:19:24;;;;;;;410.90;204.63;;;;;;;11.92;83.06;99272.38;289936;33;5923;-74
2022/11/06 00:19:35;;;;;;;411.37;203.10;;;;;;;11.93;83.20;99271.44;289130;34;868;-74
2022/11/06 00:19:45;;;;;;;416.73;203.53;;;;;;;11.93;83.00;99271.44;290495;33;6478;-75
2022/11/06 00:19:55;;;;;;;413.52;198.98;;;;;;;11.92;82.94;99269.75;292640;33;6530;-74
2022/11/06 00:20:06;;;;;;;407.67;197.97;;;;;;;11.92;82.74;99267.13;294155;33;913;-75
2022/11/06 00:20:17;;;;;;;405.98;198.98;;;;;;;11.92;82.57;99269.75;289380;33;6342;-74
2022/11/06 00:20:27;;;;;;;406.30;198.27;;;;;;;11.91;82.60;99268.06;287337;34;6167;-74
2022/11/06 00:20:38;;;;;;;406.13;199.93;;;;;;;11.90;82.74;99272.44;284963;34;1514;-74
2022/11/06 00:20:48;;;;;;;404.15;198.38;;;;;;;11.90;82.54;99266.34;280853;35;1334;-74
2022/11/06 00:20:59;;;;;;;406.33;203.33;;;;;;;11.91;82.56;99271.53;283204;34;4656;-75
2022/11/06 00:21:12;;;;;;;408.42;201.30;;;;;;;11.91;82.73;99270.66;280584;34;6319;-73
2022/11/06 00:21:24;;;;;;;410.33;199.75;;;;;;;11.90;82.62;99271.59;278229;35;1521;-74
2022/11/06 00:21:35;;;;;;;406.30;195.18;;;;;;;11.90;82.57;99271.59;274912;36;963;-74
2022/11/06 00:21:45;;;;;;;406.33;195.70;;;;;;;11.90;82.49;99277.69;274462;35;8892;-73
2022/11/06 00:21:56;;;;;;;425.00;197.98;;;;;;;11.91;82.47;99282.00;274172;35;8962;-74
2022/11/06 00:22:06;;;;;;;423.23;197.83;;;;;;;11.91;82.43;99278.53;275657;35;1384;-73
2022/11/06 00:22:16;;;;;;;425.60;199.63;;;;;;;11.90;82.64;99282.09;269363;36;8864;-73
2022/11/06 00:22:27;;;;;;;409.73;199.18;;;;;;;11.92;82.76;99286.31;269316;36;8870;-73
2022/11/06 00:22:37;;;;;;;407.73;197.97;;;;;;;11.93;82.32;99281.94;269021;36;850;-75
2022/11/06 00:24:30;;;;;;;386.75;170.79;;;;;;;11.98;83.00;99274.69;2502533;27;20487;-74
2022/11/06 00:24:40;;;;;;;393.10;176.63;;;;;;;11.96;83.32;99272.13;353723;27;1796;-75
2022/11/06 00:24:50;;;;;;;390.13;176.90;;;;;;;11.96;83.27;99276.53;353159;28;894;-73
2022/11/06 00:25:01;;;;;;;389.00;177.40;;;;;;;11.97;83.12;99283.47;350312;28;804;-73
2022/11/06 00:25:12;;;;;;;392.23;180.77;;;;;;;11.96;83.04;99279.16;347591;28;990;-73
2022/11/06 00:25:22;;;;;;;394.35;181.77;;;;;;;11.96;82.87;99277.38;347636;28;821;-74
2022/11/06 00:25:33;;;;;;;397.83;181.83;;;;;;;11.95;82.79;99274.84;347584;28;1299;-74
2022/11/06 00:25:43;;;;;;;395.13;180.05;;;;;;;11.97;82.89;99278.22;347586;28;1352;-74
2022/11/06 00:25:55;;;;;;;394.27;181.03;;;;;;;11.97;83.08;99283.47;346846;28;1416;-74
2022/11/06 00:26:12;;;;;;;389.75;179.98;;;;;;;11.96;83.30;99276.53;347086;28;952;-75
2022/11/06 00:26:24;;;;;;;387.27;176.88;;;;;;;11.97;83.26;99273.81;349712;28;1787;-74
2022/11/06 00:26:35;;;;;;;388.15;176.35;;;;;;;11.96;83.41;99268.66;348802;28;1400;-74
2022/11/06 00:26:45;;;;;;;393.73;177.38;;;;;;;11.98;83.45;99274.69;347670;28;824;-74
2022/11/06 00:26:56;;;;;;;398.13;178.80;;;;;;;11.99;83.46;99276.38;348605;28;1000;-74
2022/11/06 00:27:06;;;;;;;399.83;181.53;;;;;;;11.98;83.41;99270.28;347541;28;1133;-74
2022/11/06 00:27:17;;;;;;;398.70;182.07;;;;;;;11.98;83.28;99274.69;347487;28;887;-74
2022/11/06 00:27:27;;;;;;;396.77;179.50;;;;;;;11.97;83.24;99272.97;346874;28;1492;-74
2022/11/06 00:27:38;;;;;;;395.77;181.77;;;;;;;11.97;83.14;99273.81;346112;28;1782;-74
2022/11/06 00:27:48;;;;;;;394.20;183.30;;;;;;;11.95;83.06;99274.84;348977;28;983;-74
2022/11/06 00:27:59;;;;;;;391.60;180.80;;;;;;;11.95;83.04;99274.84;350372;28;888;-74
2022/11/06 00:28:09;;;;;;;393.33;178.70;;;;;;;11.96;82.62;99276.53;350687;28;3572;-73
2022/11/06 00:28:20;;;;;;;392.65;182.38;;;;;;;11.94;82.55;99278.38;348444;28;3615;-73
2022/11/06 00:28:30;;;;;;;393.80;184.50;;;;;;;11.96;82.85;99271.28;344854;28;792;-73
2022/11/06 00:28:40;;;;;;;395.48;186.80;;;;;;;11.95;82.63;99275.69;347971;28;1307;-73
2022/11/06 00:28:51;;;;;;;396.90;185.27;;;;;;;11.95;82.66;99274.84;348960;28;1127;-74
2022/11/06 00:29:02;;;;;;;401.63;186.75;;;;;;;11.96;82.70;99281.78;347641;28;935;-74
2022/11/06 00:29:13;;;;;;;402.70;185.23;;;;;;;11.95;82.67;99274.84;349474;28;1457;-74
2022/11/06 00:29:23;;;;;;;403.88;183.35;;;;;;;11.96;82.62;99274.75;348960;28;863;-74
2022/11/06 00:29:34;;;;;;;398.73;179.37;;;;;;;11.96;82.72;99276.53;347594;28;875;-74
2022/11/06 00:29:44;;;;;;;393.67;179.95;;;;;;;11.96;82.89;99271.28;346258;28;872;-74
2022/11/06 00:29:55;;;;;;;394.93;180.93;;;;;;;11.96;82.62;99269.50;348337;28;1706;-73
2022/11/06 00:30:06;;;;;;;396.70;183.52;;;;;;;11.97;82.77;99272.97;346050;28;1522;-74
2022/11/06 00:30:19;;;;;;;399.60;181.77;;;;;;;11.97;82.92;99272.97;347549;28;880;-74
2022/11/06 00:30:29;;;;;;;394.55;179.77;;;;;;;11.97;82.72;99272.97;346744;28;1482;-73
2022/11/06 00:30:40;;;;;;;391.07;181.53;;;;;;;11.96;82.91;99276.53;341633;28;1299;-74
2022/11/06 00:30:50;;;;;;;385.30;178.85;;;;;;;11.96;82.73;99276.53;340613;28;1586;-73
2022/11/06 00:31:07;;;;;;;391.27;181.57;;;;;;;11.95;82.66;99270.44;344483;28;1817;-75
2022/11/06 00:31:22;;;;;;;392.88;178.23;;;;;;;11.95;82.85;99275.69;342107;28;1384;-75
2022/11/06 00:31:36;;;;;;;393.67;176.43;;;;;;;11.96;82.90;99277.38;340894;29;901;-73
2022/11/06 00:31:48;;;;;;;397.52;181.07;;;;;;;11.95;82.90;99269.59;340840;29;956;-75
2022/11/06 00:31:58;;;;;;;398.63;181.57;;;;;;;11.95;83.20;99273.06;340919;29;918;-73
2022/11/06 00:32:09;;;;;;;395.57;182.57;;;;;;;11.96;83.38;99266.03;341578;28;1456;-74
2022/11/06 00:32:19;;;;;;;393.30;180.87;;;;;;;11.97;83.67;99267.72;344577;28;1409;-74
2022/11/06 00:32:29;;;;;;;397.45;179.55;;;;;;;11.97;83.82;99272.97;340819;29;1141;-75
2022/11/06 00:32:40;;;;;;;399.92;179.57;;;;;;;11.96;83.35;99276.53;343781;28;1367;-73
2022/11/06 00:32:51;;;;;;;396.47;180.30;;;;;;;11.95;83.00;99266.97;343484;28;1477;-73
2022/11/06 00:33:01;;;;;;;391.10;179.35;;;;;;;11.95;82.88;99274.84;338369;29;1325;-73
2022/11/06 00:33:12;;;;;;;386.87;177.13;;;;;;;11.95;82.94;99274.84;336709;29;1597;-75
2022/11/06 00:33:22;;;;;;;386.98;176.45;;;;;;;11.94;82.64;99273.13;335945;29;1915;-74
2022/11/06 00:33:33;;;;;;;390.47;176.30;;;;;;;11.94;82.66;99270.50;336859;29;1333;-74
2022/11/06 00:33:43;;;;;;;394.63;178.88;;;;;;;11.93;82.86;99271.44;338248;29;873;-74
2022/11/06 00:33:55;;;;;;;395.57;178.73;;;;;;;11.93;83.00;99272.28;341332;28;1370;-74
2022/11/06 00:34:06;;;;;;;393.67;175.88;;;;;;;11.95;83.24;99274.84;339707;29;1028;-75
2022/11/06 00:34:16;;;;;;;393.13;172.27;;;;;;;11.95;83.30;99277.47;338212;29;1453;-74
2022/11/06 00:34:27;;;;;;;394.80;173.95;;;;;;;11.96;83.61;99276.53;343918;28;1488;-75
2022/11/06 00:34:37;;;;;;;394.53;175.27;;;;;;;11.96;83.42;99276.53;342870;28;2092;-74
2022/11/06 00:34:48;;;;;;;390.50;174.98;;;;;;;11.95;82.93;99277.47;342324;28;856;-74
2022/11/06 00:34:58;;;;;;;399.43;178.17;;;;;;;11.95;83.03;99278.31;342941;28;2059;-74
2022/11/06 00:35:08;;;;;;;401.07;178.43;;;;;;;11.94;82.76;99279.22;342527;28;2092;-74
2022/11/06 00:35:19;;;;;;;403.35;180.25;;;;;;;11.95;82.53;99277.47;340604;29;2281;-74
2022/11/06 00:35:29;;;;;;;397.23;177.30;;;;;;;11.95;82.72;99280.06;335632;29;949;-74
2022/11/06 00:35:40;;;;;;;397.13;177.27;;;;;;;11.94;82.69;99284.47;337162;29;2322;-74
2022/11/06 00:35:50;;;;;;;396.53;175.20;;;;;;;11.94;82.69;99281.00;338562;29;1572;-74
2022/11/06 00:36:04;;;;;;;391.85;172.55;;;;;;;11.93;82.74;99272.28;338372;29;893;-74
2022/11/06 00:36:19;;;;;;;390.80;171.85;;;;;;;11.96;82.74;99281.78;333071;29;1365;-73
2022/11/06 00:36:29;;;;;;;391.42;175.75;;;;;;;11.97;82.90;99283.47;328049;30;911;-74
2022/11/06 00:36:39;;;;;;;393.25;180.15;;;;;;;11.96;82.96;99266.03;329070;29;2162;-73
2022/11/06 00:36:50;;;;;;;395.23;181.13;;;;;;;11.97;83.02;99278.22;329310;29;2248;-73
2022/11/06 00:37:00;;;;;;;392.00;178.43;;;;;;;11.96;83.34;99276.53;330676;29;938;-73
2022/11/06 00:37:11;;;;;;;389.90;176.67;;;;;;;11.96;83.13;99276.53;326949;30;2443;-74
2022/11/06 00:37:21;;;;;;;388.85;178.63;;;;;;;11.96;82.95;99274.75;326935;29;3117;-72
2022/11/06 00:37:33;;;;;;;391.47;183.80;;;;;;;11.95;83.10;99270.44;331876;29;2642;-73
2022/11/06 00:37:43;;;;;;;391.80;181.02;;;;;;;11.95;82.96;99274.84;330278;29;2649;-73
2022/11/06 00:37:54;;;;;;;393.63;178.63;;;;;;;11.96;82.76;99268.66;328397;29;1811;-73
2022/11/06 00:38:05;;;;;;;397.27;178.88;;;;;;;11.95;82.92;99272.22;326634;30;1791;-73
2022/11/06 00:38:15;;;;;;;400.57;182.87;;;;;;;11.94;82.94;99266.13;325269;30;1219;-73
2022/11/06 00:38:26;;;;;;;394.25;180.55;;;;;;;11.93;82.81;99271.44;327769;30;2102;-73
2022/11/06 00:38:36;;;;;;;389.03;176.80;;;;;;;11.94;82.95;99273.13;322497;30;2742;-73
2022/11/06 00:38:47;;;;;;;388.67;175.83;;;;;;;11.92;83.00;99261.88;318677;31;881;-73
2022/11/06 00:38:57;;;;;;;392.38;178.48;;;;;;;11.91;82.98;99263.66;316868;30;2888;-73
2022/11/06 00:39:08;;;;;;;392.50;176.23;;;;;;;11.91;82.84;99265.44;317865;30;3117;-73
2022/11/06 00:39:18;;;;;;;390.90;174.73;;;;;;;11.91;83.02;99263.66;316334;31;739;-73
2022/11/06 00:39:29;;;;;;;391.77;174.25;;;;;;;11.91;82.74;99268.91;315183;31;875;-73
2022/11/06 00:39:39;;;;;;;392.97;179.03;;;;;;;11.90;82.80;99256.72;311810;31;3687;-73
2022/11/06 00:39:49;;;;;;;397.85;184.25;;;;;;;11.89;82.71;99267.28;310727;31;3454;-72
2022/11/06 00:40:00;;;;;;;393.50;184.77;;;;;;;11.89;82.81;99268.13;310722;31;1342;-72
2022/11/06 00:40:11;;;;;;;390.97;181.03;;;;;;;11.90;82.76;99266.34;309685;31;2478;-72
2022/11/06 00:40:21;;;;;;;386.20;179.52;;;;;;;11.89;83.12;99264.66;309238;31;2015;-72
2022/11/06 00:40:32;;;;;;;393.17;183.20;;;;;;;11.88;82.86;99268.22;309447;31;1196;-72
2022/11/06 00:40:42;;;;;;;395.05;182.52;;;;;;;11.86;82.82;99260.41;306759;32;2691;-72
2022/11/06 00:40:52;;;;;;;395.43;181.33;;;;;;;11.87;82.94;99264.75;308462;31;3518;-72
2022/11/06 00:41:05;;;;;;;392.10;180.80;;;;;;;11.86;82.56;99264.81;310485;31;935;-73
2022/11/06 00:41:15;;;;;;;389.33;180.65;;;;;;;11.87;83.04;99271.75;304292;32;864;-73
2022/11/06 00:41:26;;;;;;;388.93;180.03;;;;;;;11.87;82.62;99266.50;303633;32;5001;-73
2022/11/06 00:41:36;;;;;;;391.23;180.83;;;;;;;11.85;82.64;99268.38;302341;32;4289;-74
2022/11/06 00:41:47;;;;;;;393.70;183.27;;;;;;;11.86;82.93;99268.28;303199;32;1773;-73
2022/11/06 00:41:57;;;;;;;393.85;182.90;;;;;;;11.86;82.83;99262.19;302420;32;4690;-73
2022/11/06 00:42:07;;;;;;;394.83;181.13;;;;;;;11.86;82.97;99270.06;301936;32;4682;-73
2022/11/06 00:42:18;;;;;;;391.25;177.18;;;;;;;11.86;83.19;99267.44;302222;32;979;-74
2022/11/06 00:42:28;;;;;;;389.03;176.27;;;;;;;11.86;82.96;99270.91;297310;32;3350;-74
2022/11/06 00:42:39;;;;;;;390.60;179.32;;;;;;;11.86;83.46;99270.91;295386;33;3057;-73
2022/11/06 00:42:52;;;;;;;397.03;182.93;;;;;;;11.86;83.89;99270.06;292385;33;4045;-73
2022/11/06 00:43:03;;;;;;;403.52;181.57;;;;;;;11.86;83.46;99267.44;291144;33;2425;-73
2022/11/06 00:43:13;;;;;;;402.33;180.80;;;;;;;11.86;83.29;99270.91;292268;33;5203;-73
2022/11/06 00:43:24;;;;;;;398.15;185.85;;;;;;;11.85;83.42;99268.38;292443;33;5694;-73
2022/11/06 00:43:35;;;;;;;398.48;187.07;;;;;;;11.84;83.30;99266.66;291488;33;6676;-74
2022/11/06 00:43:49;;;;;;;395.80;188.80;;;;;;;11.86;83.45;99267.44;290160;34;1338;-74
2022/11/06 00:44:00;;;;;;;394.17;182.13;;;;;;;11.86;83.23;99276.16;290233;34;1116;-73
2022/11/06 00:44:11;;;;;;;394.35;183.52;;;;;;;11.86;83.23;99270.06;292235;33;6291;-73
2022/11/06 00:44:21;;;;;;;396.35;182.50;;;;;;;11.84;83.16;99264.91;290864;33;6705;-73
2022/11/06 00:44:32;;;;;;;397.20;181.73;;;;;;;11.84;83.04;99271.91;290213;34;1082;-73
2022/11/06 00:44:42;;;;;;;394.53;178.60;;;;;;;11.84;83.09;99274.53;288200;34;4837;-74
2022/11/06 00:44:52;;;;;;;390.80;178.65;;;;;;;11.85;82.95;99271.00;287004;34;4233;-74
2022/11/06 00:45:03;;;;;;;388.20;177.87;;;;;;;11.85;83.20;99279.69;285430;34;1220;-74
2022/11/06 00:45:13;;;;;;;388.08;178.40;;;;;;;11.84;83.05;99271.91;285505;34;6461;-74
2022/11/06 00:45:24;;;;;;;391.03;178.77;;;;;;;11.85;83.04;99269.22;284671;34;8120;-74
2022/11/06 00:45:35;;;;;;;392.80;178.50;;;;;;;11.85;82.99;99268.38;283345;34;7207;-74
2022/11/06 00:45:45;;;;;;;392.40;179.80;;;;;;;11.84;83.23;99271.91;281478;35;1349;-74
2022/11/06 00:46:02;;;;;;;397.13;183.47;;;;;;;11.82;83.46;99271.13;277697;35;8205;-73
2022/11/06 00:46:13;;;;;;;397.25;182.93;;;;;;;11.81;83.78;99274.69;274327;35;8062;-72
2022/11/06 00:46:23;;;;;;;398.92;182.43;;;;;;;11.81;83.03;99274.69;272720;35;9182;-72
2022/11/06 00:46:35;;;;;;;396.38;181.20;;;;;;;11.80;83.19;99273.84;272272;36;9298;-72
2022/11/06 00:46:45;;;;;;;394.52;181.52;;;;;;;11.80;83.24;99275.63;272269;36;1813;-73
2022/11/06 00:46:56;;;;;;;391.10;181.10;;;;;;;11.80;82.98;99270.38;271812;35;6960;-73
2022/11/06 00:47:07;;;;;;;394.10;181.83;;;;;;;11.79;83.08;99279.16;270085;36;6084;-72
2022/11/06 00:47:18;;;;;;;397.13;179.07;;;;;;;11.80;83.04;99276.47;270638;36;868;-72
2022/11/06 00:49:27;;;;;;;386.29;173.10;;;;;;;11.71;83.50;99279.53;2496298;27;20551;-74
2022/11/06 00:49:38;;;;;;;390.65;175.90;;;;;;;11.72;83.48;99288.22;353131;28;823;-74
2022/11/06 00:49:48;;;;;;;389.58;177.68;;;;;;;11.71;83.41;99279.53;351799;28;1284;-74
2022/11/06 00:49:58;;;;;;;387.20;177.43;;;;;;;11.72;83.42;99280.38;350480;28;772;-74
2022/11/06 00:50:09;;;;;;;390.05;179.45;;;;;;;11.74;83.26;99286.38;348910;28;1446;-74
2022/11/06 00:50:19;;;;;;;390.00;182.33;;;;;;;11.72;83.38;99283.84;348939;28;793;-74
2022/11/06 00:50:30;;;;;;;391.63;183.05;;;;;;;11.72;83.30;99288.22;348964;28;816;-74
2022/11/06 00:50:41;;;;;;;395.45;185.25;;;;;;;11.71;83.13;99281.28;347506;28;1267;-74
2022/11/06 00:50:51;;;;;;;395.57;183.93;;;;;;;11.70;83.39;99284.88;348477;28;1664;-71
2022/11/06 00:51:19;;;;;;;399.58;186.90;;;;;;;11.69;83.34;99283.19;349093;28;869;-72
2022/11/06 00:51:34;;;;;;;395.38;187.93;;;;;;;11.68;83.48;99284.09;347382;28;989;-73
2022/11/06 00:51:45;;;;;;;397.20;189.95;;;;;;;11.65;83.44;99282.47;346279;28;860;-73
2022/11/06 00:51:55;;;;;;;396.73;189.80;;;;;;;11.64;83.48;99279.00;347111;28;1310;-73
2022/11/06 00:52:05;;;;;;;397.77;188.55;;;;;;;11.66;83.16;99278.94;346312;28;844;-73
2022/11/06 00:52:16;;;;;;;398.27;186.33;;;;;;;11.66;83.29;99273.69;346230;28;900;-73
2022/11/06 00:52:28;;;;;;;392.27;184.15;;;;;;;11.68;83.49;99281.47;347614;28;867;-75
2022/11/06 00:52:38;;;;;;;392.70;185.40;;;;;;;11.68;83.58;99276.22;345015;28;1457;-73
2022/11/06 00:52:49;;;;;;;391.77;181.27;;;;;;;11.68;83.34;99278.84;347425;28;1292;-73
2022/11/06 00:52:59;;;;;;;395.60;182.50;;;;;;;11.67;83.49;99272.75;346586;28;1275;-72
2022/11/06 00:53:09;;;;;;;392.87;180.33;;;;;;;11.66;83.42;99268.44;344776;28;801;-72
2022/11/06 00:53:20;;;;;;;395.20;182.90;;;;;;;11.68;83.53;99281.47;344463;28;1103;-72
2022/11/06 00:53:30;;;;;;;395.37;184.50;;;;;;;11.65;83.64;99272.84;346198;28;918;-72
2022/11/06 00:53:41;;;;;;;392.13;184.27;;;;;;;11.64;83.64;99276.38;346098;28;1166;-72
2022/11/06 00:53:58;;;;;;;393.45;186.85;;;;;;;11.64;83.50;99276.38;349417;28;1056;-73
2022/11/06 00:54:10;;;;;;;397.13;187.35;;;;;;;11.64;83.64;99281.63;350321;28;989;-72
2022/11/06 00:54:20;;;;;;;392.20;181.40;;;;;;;11.65;83.66;99278.09;349366;28;1430;-72
2022/11/06 00:54:31;;;;;;;391.92;177.20;;;;;;;11.67;83.47;99275.38;349027;28;817;-72
2022/11/06 00:54:41;;;;;;;390.43;173.97;;;;;;;11.68;83.31;99277.09;346179;28;870;-72
2022/11/06 00:54:51;;;;;;;394.23;175.60;;;;;;;11.68;83.30;99279.69;347028;28;799;-72
2022/11/06 00:55:02;;;;;;;392.88;176.82;;;;;;;11.68;83.34;99273.63;344775;28;998;-73
2022/11/06 00:55:12;;;;;;;395.27;179.73;;;;;;;11.69;83.06;99283.19;346180;28;1276;-73
2022/11/06 00:55:23;;;;;;;393.30;180.88;;;;;;;11.69;83.01;99270.06;345058;28;1089;-72
2022/11/06 00:55:33;;;;;;;395.40;183.57;;;;;;;11.71;83.16;99283.91;341676;28;3580;-72
2022/11/06 00:55:44;;;;;;;394.58;185.38;;;;;;;11.72;82.90;99280.38;341673;28;2214;-74
2022/11/06 00:55:54;;;;;;;398.38;185.45;;;;;;;11.71;82.98;99278.66;346894;28;1437;-74
2022/11/06 00:56:15;;;;;;;403.60;185.90;;;;;;;11.72;82.65;99286.47;347195;28;1867;-73
2022/11/06 00:56:25;;;;;;;399.35;179.45;;;;;;;11.70;82.72;99274.38;347463;28;1378;-73
2022/11/06 00:56:36;;;;;;;392.20;178.77;;;;;;;11.68;83.18;99282.31;344867;28;872;-73